createdAt,value
2023-09-12T00:01:37.048Z,22.38
2023-09-12T00:04:19.707Z,22.25
2023-09-12T00:07:02.716Z,22.25
2023-09-12T00:09:45.024Z,21.85
2023-09-12T00:12:27.601Z,20.25
2023-09-12T00:15:10.060Z,21.77
2023-09-12T00:17:52.630Z,22.42
2023-09-12T00:20:34.833Z,21.50
2023-09-12T00:23:17.471Z,23.42
2023-09-12T00:25:59.748Z,20.65
2023-09-12T00:28:42.761Z,21.15
2023-09-12T00:31:25.321Z,20.80
2023-09-12T00:34:07.929Z,23.02
2023-09-12T00:36:50.127Z,23.27
2023-09-12T00:39:33.459Z,21.65
2023-09-12T00:42:15.802Z,21.25
2023-09-12T00:44:58.288Z,23.40
2023-09-12T00:47:40.636Z,22.67
2023-09-12T00:50:26.286Z,22.75
2023-09-12T00:53:09.043Z,22.17
2023-09-12T00:55:57.545Z,22.77
2023-09-12T00:58:40.186Z,23.05
2023-09-12T01:01:23.885Z,23.05
2023-09-12T01:04:08.774Z,22.13
2023-09-12T01:06:57.943Z,23.13
2023-09-12T01:09:41.604Z,21.58
2023-09-12T01:12:24.881Z,22.92
2023-09-12T01:15:14.348Z,25.00
2023-09-12T01:17:58.157Z,23.10
2023-09-12T01:20:47.572Z,24.63
2023-09-12T01:23:54.117Z,24.00
2023-09-12T01:26:45.120Z,23.85
2023-09-12T01:29:28.705Z,22.83
2023-09-12T01:32:12.089Z,20.20
2023-09-12T01:34:54.653Z,21.10
2023-09-12T01:37:36.874Z,22.55
2023-09-12T01:40:25.254Z,22.55
2023-09-12T01:43:08.362Z,21.88
2023-09-12T01:45:56.786Z,24.30
2023-09-12T01:48:39.851Z,22.60
2023-09-12T01:51:25.283Z,28.42
2023-09-12T01:54:08.650Z,29.75
2023-09-12T01:56:52.354Z,24.88
2023-09-12T01:59:34.750Z,24.13
2023-09-12T02:02:17.985Z,23.08
2023-09-12T02:05:09.045Z,23.23
2023-09-12T02:07:51.889Z,22.70
2023-09-12T02:10:34.366Z,22.02
2023-09-12T02:13:16.953Z,22.85
2023-09-12T02:16:04.263Z,21.75
2023-09-12T02:18:47.556Z,20.80
2023-09-12T02:21:29.918Z,21.15
2023-09-12T02:24:12.541Z,22.23
2023-09-12T02:26:54.835Z,20.73
2023-09-12T02:29:40.606Z,20.55
2023-09-12T02:32:22.881Z,21.55
2023-09-12T02:35:05.753Z,22.52
2023-09-12T02:37:48.022Z,21.63
2023-09-12T02:40:31.383Z,20.98
2023-09-12T02:43:14.061Z,21.20
2023-09-12T02:45:56.915Z,22.20
2023-09-12T02:48:39.192Z,23.25
2023-09-12T02:51:21.785Z,19.92
2023-09-12T02:54:04.243Z,21.20
2023-09-12T02:56:46.790Z,23.63
2023-09-12T02:59:30.193Z,20.38
2023-09-12T03:02:12.827Z,20.25
2023-09-12T03:04:55.108Z,21.25
2023-09-12T03:07:38.265Z,22.63
2023-09-12T03:10:20.476Z,20.77
2023-09-12T03:13:03.201Z,22.00
2023-09-12T03:15:45.770Z,20.10
2023-09-12T03:18:28.382Z,25.73
2023-09-12T03:21:11.322Z,22.42
2023-09-12T03:23:54.318Z,22.00
2023-09-12T03:26:38.366Z,22.13
2023-09-12T03:29:21.010Z,21.27
2023-09-12T03:32:04.723Z,21.38
2023-09-12T03:34:48.457Z,21.30
2023-09-12T03:37:30.821Z,32.28
2023-09-12T03:40:13.465Z,23.27
2023-09-12T03:42:55.944Z,23.70
2023-09-12T03:45:38.790Z,21.80
2023-09-12T03:48:21.296Z,28.30
2023-09-12T03:51:05.349Z,25.13
2023-09-12T03:53:48.893Z,21.38
2023-09-12T03:56:32.468Z,23.63
2023-09-12T03:59:14.810Z,21.73
2023-09-12T04:01:57.832Z,23.17
2023-09-12T04:04:40.748Z,24.65
2023-09-12T04:07:24.234Z,22.38
2023-09-12T04:10:07.073Z,23.17
2023-09-12T04:12:49.750Z,27.70
2023-09-12T04:15:32.614Z,22.45
2023-09-12T04:18:15.372Z,22.00
2023-09-12T04:20:58.428Z,26.13
2023-09-12T04:23:41.011Z,26.50
2023-09-12T04:26:23.536Z,25.98
2023-09-12T04:29:06.352Z,22.77
2023-09-12T04:31:48.869Z,26.98
2023-09-12T04:34:31.961Z,25.02
2023-09-12T04:37:14.314Z,24.85
2023-09-12T04:39:58.218Z,23.75
2023-09-12T04:42:40.676Z,29.77
2023-09-12T04:45:23.661Z,29.23
2023-09-12T04:48:06.419Z,30.88
2023-09-12T04:50:49.476Z,25.13
2023-09-12T04:53:35.818Z,27.42
2023-09-12T04:56:20.092Z,32.22
2023-09-12T04:59:02.595Z,26.85
2023-09-12T05:01:45.462Z,25.98
2023-09-12T05:04:28.935Z,25.00
2023-09-12T05:07:11.778Z,30.33
2023-09-12T05:09:54.169Z,28.08
2023-09-12T05:12:37.065Z,33.38
2023-09-12T05:15:19.628Z,31.17
2023-09-12T05:18:02.505Z,29.88
2023-09-12T05:20:45.028Z,24.88
2023-09-12T05:23:27.947Z,28.70
2023-09-12T05:26:10.243Z,33.13
2023-09-12T05:28:53.991Z,29.13
2023-09-12T05:31:36.770Z,32.63
2023-09-12T05:34:19.618Z,29.80
2023-09-12T05:37:01.882Z,25.88
2023-09-12T05:39:44.728Z,26.23
2023-09-12T05:42:27.161Z,24.17
2023-09-12T05:45:10.203Z,25.65
2023-09-12T05:47:53.252Z,27.40
2023-09-12T05:50:36.304Z,23.38
2023-09-12T05:53:18.767Z,26.25
2023-09-12T05:56:01.599Z,27.33
2023-09-12T05:58:44.580Z,29.70
2023-09-12T06:01:28.299Z,24.33
2023-09-12T06:04:10.857Z,29.85
2023-09-12T06:06:54.251Z,26.80
2023-09-12T06:09:36.637Z,28.88
2023-09-12T06:12:19.721Z,30.40
2023-09-12T06:15:02.639Z,34.22
2023-09-12T06:17:45.822Z,25.42
2023-09-12T06:20:28.204Z,30.80
2023-09-12T06:23:11.683Z,33.03
2023-09-12T06:25:54.080Z,27.58
2023-09-12T06:28:36.730Z,29.48
2023-09-12T06:31:19.075Z,39.10
2023-09-12T06:34:01.702Z,30.85
2023-09-12T06:36:46.329Z,25.13
2023-09-12T06:39:29.174Z,27.33
2023-09-12T06:42:11.718Z,31.17
2023-09-12T06:44:54.416Z,28.25
2023-09-12T06:47:36.820Z,29.27
2023-09-12T06:50:19.445Z,48.90
2023-09-12T06:53:01.777Z,31.95
2023-09-12T06:55:44.809Z,30.35
2023-09-12T06:58:27.250Z,29.45
2023-09-12T07:01:09.887Z,32.00
2023-09-12T07:03:56.647Z,23.13
2023-09-12T07:06:39.350Z,28.35
2023-09-12T07:09:21.971Z,27.75
2023-09-12T07:12:06.924Z,29.48
2023-09-12T07:14:49.283Z,25.83
2023-09-12T07:17:31.957Z,45.00
2023-09-12T07:20:14.243Z,32.35
2023-09-12T07:22:56.907Z,23.23
2023-09-12T07:25:41.443Z,26.98
2023-09-12T07:28:31.339Z,23.63
2023-09-12T07:31:13.789Z,21.60
2023-09-12T07:33:56.547Z,23.77
2023-09-12T07:36:39.793Z,24.27
2023-09-12T07:39:22.480Z,22.17
2023-09-12T07:42:05.068Z,17.60
2023-09-12T07:44:47.738Z,17.55
2023-09-12T07:47:29.998Z,28.77
2023-09-12T07:50:13.531Z,25.52
2023-09-12T07:52:57.992Z,21.83
2023-09-12T07:55:47.571Z,28.77
2023-09-12T07:58:30.046Z,23.10
2023-09-12T08:01:12.678Z,22.50
2023-09-12T08:03:55.839Z,22.08
2023-09-12T08:06:55.293Z,23.92
2023-09-12T08:10:00.291Z,20.10
2023-09-12T08:12:43.077Z,17.15
2023-09-12T08:15:25.436Z,16.50
2023-09-12T08:18:08.326Z,14.43
2023-09-12T08:20:50.802Z,24.80
2023-09-12T08:23:33.432Z,18.15
2023-09-12T08:26:17.459Z,18.42
2023-09-12T08:29:00.145Z,20.38
2023-09-12T08:31:42.431Z,15.50
2023-09-12T08:34:25.123Z,15.35
2023-09-12T08:37:07.315Z,20.52
2023-09-12T08:39:49.942Z,21.73
2023-09-12T08:42:33.332Z,16.65
2023-09-12T08:45:17.737Z,21.45
2023-09-12T08:48:04.146Z,18.70
2023-09-12T08:50:50.318Z,13.43
2023-09-12T08:53:32.702Z,14.18
2023-09-12T08:56:15.611Z,15.40
2023-09-12T08:58:59.238Z,16.10
2023-09-12T09:01:43.003Z,13.52
2023-09-12T09:04:27.776Z,16.65
2023-09-12T09:07:11.988Z,12.65
2023-09-12T09:09:55.063Z,11.07
2023-09-12T09:12:41.623Z,12.38
2023-09-12T09:15:25.369Z,13.35
2023-09-12T09:18:08.180Z,11.20
2023-09-12T09:20:52.235Z,12.48
2023-09-12T09:23:47.047Z,10.30
2023-09-12T09:26:49.831Z,10.63
2023-09-12T09:29:35.587Z,10.25
2023-09-12T09:32:23.312Z,10.05
2023-09-12T09:35:06.479Z,19.52
2023-09-12T09:37:48.849Z,11.73
2023-09-12T09:40:31.446Z,10.77
2023-09-12T09:43:17.016Z,13.40
2023-09-12T09:45:59.990Z,12.32
2023-09-12T09:48:50.509Z,16.45
2023-09-12T09:51:33.353Z,14.60
2023-09-12T09:54:16.598Z,8.65
2023-09-12T09:56:59.427Z,8.80
2023-09-12T09:59:41.748Z,8.90
2023-09-12T10:02:28.278Z,12.40
2023-09-12T10:05:12.309Z,12.38
2023-09-12T10:07:58.796Z,9.93
2023-09-12T10:10:41.674Z,12.90
2023-09-12T10:13:28.023Z,13.50
2023-09-12T10:16:11.817Z,10.18
2023-09-12T10:19:11.849Z,13.82
2023-09-12T10:22:10.892Z,14.25
2023-09-12T10:24:56.698Z,8.15
2023-09-12T10:30:23.842Z,11.05
2023-09-12T10:33:08.086Z,10.85
2023-09-12T10:35:52.696Z,12.10
2023-09-12T10:38:41.885Z,11.85
2023-09-12T10:41:25.861Z,8.32
2023-09-12T10:44:14.057Z,10.30
2023-09-12T10:46:56.848Z,10.18
2023-09-12T10:49:39.269Z,8.20
2023-09-12T10:52:28.844Z,9.73
2023-09-12T10:55:20.514Z,8.63
2023-09-12T10:58:05.497Z,11.75
2023-09-12T11:01:29.194Z,9.00
2023-09-12T11:04:21.983Z,9.40
2023-09-12T11:07:34.950Z,11.05
2023-09-12T11:10:21.400Z,10.23
2023-09-12T11:13:04.707Z,21.02
2023-09-12T11:16:18.737Z,14.70
2023-09-12T11:19:21.285Z,8.87
2023-09-12T11:22:25.384Z,11.10
2023-09-12T11:25:37.426Z,13.77
2023-09-12T11:28:20.668Z,8.35
2023-09-12T11:31:03.243Z,11.45
2023-09-12T11:33:46.222Z,12.50
2023-09-12T11:36:29.216Z,10.43
2023-09-12T11:39:28.336Z,13.27
2023-09-12T11:42:14.556Z,11.20
2023-09-12T11:44:57.771Z,9.05
2023-09-12T11:47:43.633Z,9.70
2023-09-12T11:50:33.880Z,8.63
2023-09-12T11:53:16.200Z,8.65
2023-09-12T11:56:00.441Z,9.02
2023-09-12T11:58:44.182Z,14.25
2023-09-12T12:01:29.884Z,13.48
2023-09-12T12:06:55.270Z,14.48
2023-09-12T12:09:37.761Z,10.45
2023-09-12T12:12:20.559Z,9.52
2023-09-12T12:15:02.906Z,8.90
2023-09-12T12:17:45.632Z,8.52
2023-09-12T12:20:30.297Z,11.07
2023-09-12T12:23:13.504Z,8.82
2023-09-12T12:25:55.777Z,8.85
2023-09-12T12:28:38.427Z,9.73
2023-09-12T12:31:25.747Z,9.70
2023-09-12T12:35:38.187Z,8.43
2023-09-12T12:37:14.077Z,9.98
2023-09-12T12:39:58.228Z,9.13
2023-09-12T12:42:52.371Z,10.68
2023-09-12T12:45:38.116Z,8.75
2023-09-12T12:48:33.992Z,12.23
2023-09-12T12:51:24.462Z,11.50
2023-09-12T12:54:07.365Z,13.55
2023-09-12T12:56:50.065Z,10.40
2023-09-12T12:59:37.248Z,10.63
2023-09-12T13:02:20.522Z,14.60
2023-09-12T13:05:03.033Z,7.95
2023-09-12T13:07:45.700Z,9.88
2023-09-12T13:10:28.395Z,12.10
2023-09-12T13:13:12.701Z,10.82
2023-09-12T13:15:55.280Z,7.93
2023-09-12T13:18:38.982Z,12.82
2023-09-12T13:21:21.413Z,24.85
2023-09-12T13:24:04.420Z,8.57
2023-09-12T13:26:46.854Z,10.82
2023-09-12T13:29:29.705Z,8.98
2023-09-12T13:32:13.954Z,8.32
2023-09-12T13:34:56.685Z,9.57
2023-09-12T13:37:39.194Z,9.20
2023-09-12T13:40:22.426Z,14.13
2023-09-12T13:43:05.613Z,9.20
2023-09-12T13:45:48.580Z,9.13
2023-09-12T13:48:31.078Z,9.48
2023-09-12T13:51:14.325Z,15.52
2023-09-12T13:53:56.680Z,12.57
2023-09-12T13:56:39.723Z,12.35
2023-09-12T13:59:22.161Z,8.82
2023-09-12T14:02:05.221Z,10.90
2023-09-12T14:04:50.318Z,12.25
2023-09-12T14:07:36.606Z,10.73
2023-09-12T14:10:31.093Z,9.63
2023-09-12T14:13:22.194Z,10.90
2023-09-12T14:16:05.073Z,14.10
2023-09-12T14:18:47.895Z,8.48
2023-09-12T14:21:31.305Z,12.55
2023-09-12T14:24:14.692Z,10.10
2023-09-12T14:29:40.784Z,12.27
2023-09-12T14:32:23.128Z,9.68
2023-09-12T14:35:06.132Z,18.42
2023-09-12T14:37:50.544Z,12.45
2023-09-12T14:40:33.091Z,8.30
2023-09-12T14:43:15.448Z,8.52
2023-09-12T14:45:58.191Z,10.02
2023-09-12T14:48:45.076Z,10.15
2023-09-12T14:51:35.523Z,14.90
2023-09-12T14:54:18.077Z,9.13
2023-09-12T14:57:00.657Z,10.98
2023-09-12T14:59:42.992Z,8.98
2023-09-12T15:02:34.609Z,12.00
2023-09-12T15:05:17.395Z,8.15
2023-09-12T15:08:00.050Z,9.52
2023-09-12T15:10:42.438Z,8.65
2023-09-12T15:13:25.142Z,7.97
2023-09-12T15:16:07.718Z,8.85
2023-09-12T15:18:51.735Z,12.23
2023-09-12T15:21:34.050Z,11.50
2023-09-12T15:24:16.734Z,8.57
2023-09-12T15:27:02.109Z,12.55
2023-09-12T15:29:44.855Z,8.48
2023-09-12T15:32:27.265Z,8.63
2023-09-12T15:35:14.403Z,8.23
2023-09-12T15:37:56.688Z,10.63
2023-09-12T15:40:39.217Z,9.55
2023-09-12T15:43:25.083Z,10.45
2023-09-12T15:46:08.370Z,15.98
2023-09-12T15:48:50.819Z,12.63
2023-09-12T15:51:35.054Z,11.88
2023-09-12T15:54:17.372Z,12.25
2023-09-12T15:56:59.977Z,9.07
2023-09-12T15:59:42.322Z,10.38
2023-09-12T16:02:25.112Z,15.05
2023-09-12T16:05:07.997Z,10.90
2023-09-12T16:07:50.769Z,11.45
2023-09-12T16:10:33.154Z,13.20
2023-09-12T16:13:15.795Z,12.68
2023-09-12T16:15:58.193Z,11.43
2023-09-12T16:18:40.909Z,15.80
2023-09-12T16:21:26.142Z,10.65
2023-09-12T16:26:53.949Z,12.70
2023-09-12T16:29:39.724Z,18.27
2023-09-12T16:32:21.999Z,17.90
2023-09-12T16:35:05.794Z,19.80
2023-09-12T16:37:48.442Z,16.58
2023-09-12T16:40:32.783Z,18.88
2023-09-12T16:43:16.042Z,15.65
2023-09-12T16:45:58.791Z,14.95
2023-09-12T16:48:41.928Z,21.67
2023-09-12T16:51:24.676Z,13.82
2023-09-12T16:54:07.050Z,18.10
2023-09-12T16:56:49.616Z,16.02
2023-09-12T16:59:31.974Z,18.63
2023-09-12T17:02:15.029Z,20.63
2023-09-12T17:04:57.409Z,18.83
2023-09-12T17:07:40.086Z,16.40
2023-09-12T17:10:22.360Z,23.45
2023-09-12T17:13:06.450Z,24.17
2023-09-12T17:15:48.882Z,18.33
2023-09-12T17:18:34.322Z,20.63
2023-09-12T17:21:17.075Z,17.00
2023-09-12T17:23:59.775Z,16.13
2023-09-12T17:26:42.283Z,19.92
2023-09-12T17:29:24.965Z,23.23
2023-09-12T17:32:11.818Z,16.13
2023-09-12T17:34:56.586Z,21.27
2023-09-12T17:37:39.558Z,15.43
2023-09-12T17:40:23.400Z,19.98
2023-09-12T17:43:05.647Z,24.30
2023-09-12T17:45:56.874Z,20.10
2023-09-12T17:48:46.784Z,28.13
2023-09-12T17:51:30.719Z,29.58
2023-09-12T17:54:13.000Z,29.42
2023-09-12T17:56:55.778Z,30.40
2023-09-12T17:59:42.303Z,22.30
2023-09-12T18:02:25.157Z,22.23
2023-09-12T18:05:09.845Z,26.85
2023-09-12T18:07:54.301Z,31.77
2023-09-12T18:10:36.661Z,28.50
2023-09-12T18:13:19.609Z,26.08
2023-09-12T18:16:02.040Z,29.50
2023-09-12T18:18:45.074Z,27.40
2023-09-12T18:21:27.531Z,26.55
2023-09-12T18:24:10.297Z,24.77
2023-09-12T18:26:52.565Z,32.17
2023-09-12T18:29:35.890Z,29.52
2023-09-12T18:32:18.282Z,28.70
2023-09-12T18:35:01.032Z,33.63
2023-09-12T18:37:43.834Z,33.47
2023-09-12T18:40:28.325Z,28.80
2023-09-12T18:43:10.775Z,31.13
2023-09-12T18:45:53.960Z,31.83
2023-09-12T18:48:40.587Z,30.20
2023-09-12T18:51:23.722Z,42.08
2023-09-12T18:54:06.206Z,35.42
2023-09-12T18:56:49.734Z,38.80
2023-09-12T18:59:32.034Z,38.55
2023-09-12T19:02:15.252Z,34.33
2023-09-12T19:05:01.491Z,41.42
2023-09-12T19:07:44.392Z,34.80
2023-09-12T19:10:26.965Z,43.75
2023-09-12T19:13:12.210Z,43.15
2023-09-12T19:15:55.613Z,38.20
2023-09-12T19:18:38.502Z,40.50
2023-09-12T19:21:20.865Z,42.38
2023-09-12T19:24:05.601Z,38.83
2023-09-12T19:26:48.202Z,43.00
2023-09-12T19:29:32.367Z,41.22
2023-09-12T19:32:14.665Z,40.92
2023-09-12T19:35:00.115Z,37.08
2023-09-12T19:37:43.717Z,36.40
2023-09-12T19:40:28.151Z,39.85
2023-09-12T19:43:11.312Z,37.30
2023-09-12T19:45:56.056Z,31.23
2023-09-12T19:48:38.475Z,32.33
2023-09-12T19:51:21.219Z,32.85
2023-09-12T19:54:03.661Z,28.65
2023-09-12T19:56:46.558Z,30.95
2023-09-12T19:59:29.308Z,33.85
2023-09-12T20:02:12.019Z,31.85
2023-09-12T20:04:54.929Z,29.75
2023-09-12T20:07:37.633Z,29.88
2023-09-12T20:10:22.242Z,32.00
2023-09-12T20:13:05.363Z,27.55
2023-09-12T20:15:47.678Z,31.48
2023-09-12T20:18:30.842Z,31.88
2023-09-12T20:21:13.333Z,28.67
2023-09-12T20:23:56.093Z,28.73
2023-09-12T20:26:39.193Z,27.35
2023-09-12T20:29:21.807Z,25.63
2023-09-12T20:32:04.494Z,26.65
2023-09-12T20:34:47.195Z,30.48
2023-09-12T20:37:29.548Z,26.52
2023-09-12T20:40:12.839Z,30.15
2023-09-12T20:42:55.988Z,28.88
2023-09-12T20:45:38.960Z,32.38
2023-09-12T20:48:21.385Z,29.15
2023-09-12T20:51:22.190Z,28.58
2023-09-12T20:54:09.348Z,27.52
2023-09-12T20:56:52.064Z,27.65
2023-09-12T20:59:34.780Z,27.63
2023-09-12T21:02:17.183Z,26.40
2023-09-12T21:04:59.880Z,31.02
2023-09-12T21:07:42.519Z,29.23
2023-09-12T21:10:25.183Z,34.45
2023-09-12T21:13:07.781Z,29.70
2023-09-12T21:15:52.164Z,27.85
2023-09-12T21:18:35.071Z,30.10
2023-09-12T21:21:17.887Z,31.30
2023-09-12T21:24:00.335Z,31.52
2023-09-12T21:26:43.573Z,33.40
2023-09-12T21:29:25.885Z,34.38
2023-09-12T21:32:08.547Z,36.70
2023-09-12T21:34:58.710Z,36.92
2023-09-12T21:37:47.094Z,38.10
2023-09-12T21:40:29.559Z,33.42
2023-09-12T21:43:13.748Z,34.55
2023-09-12T21:45:56.615Z,33.30
2023-09-12T21:48:39.465Z,33.13
2023-09-12T21:51:21.895Z,35.70
2023-09-12T21:54:04.672Z,31.38
2023-09-12T21:56:46.965Z,39.20
2023-09-12T21:59:29.576Z,34.33
2023-09-12T22:02:12.026Z,31.85
2023-09-12T22:04:54.692Z,34.85
2023-09-12T22:07:37.338Z,29.35
2023-09-12T22:10:20.775Z,28.88
2023-09-12T22:13:03.844Z,29.98
2023-09-12T22:15:46.447Z,27.52
2023-09-12T22:18:28.768Z,27.42
2023-09-12T22:21:11.291Z,28.40
2023-09-12T22:23:53.633Z,27.85
2023-09-12T22:26:36.149Z,27.60
2023-09-12T22:29:18.374Z,27.02
2023-09-12T22:32:00.977Z,29.30
2023-09-12T22:34:43.275Z,30.33
2023-09-12T22:37:25.833Z,30.27
2023-09-12T22:40:10.099Z,27.58
2023-09-12T22:42:52.846Z,27.88
2023-09-12T22:45:35.197Z,28.75
2023-09-12T22:48:17.750Z,29.13
2023-09-12T22:51:00.135Z,28.05
2023-09-12T22:53:42.934Z,27.08
2023-09-12T22:56:25.413Z,28.05
2023-09-12T22:59:09.163Z,28.95
2023-09-12T23:01:51.453Z,27.95
2023-09-12T23:04:34.211Z,27.15
2023-09-12T23:07:17.274Z,28.55
2023-09-12T23:09:59.849Z,35.60
2023-09-12T23:12:42.119Z,30.90
2023-09-12T23:15:25.288Z,26.55
2023-09-12T23:18:07.951Z,29.30
2023-09-12T23:20:50.534Z,26.65
2023-09-12T23:23:32.712Z,25.95
2023-09-12T23:26:16.466Z,24.80
2023-09-12T23:28:58.811Z,27.75
2023-09-12T23:31:41.420Z,26.15
2023-09-12T23:34:24.776Z,26.08
2023-09-12T23:37:07.520Z,26.55
2023-09-12T23:39:49.861Z,31.30
2023-09-12T23:42:32.524Z,26.05
2023-09-12T23:45:14.964Z,30.02
2023-09-12T23:47:58.700Z,25.67
2023-09-12T23:50:42.808Z,26.50
2023-09-12T23:53:25.414Z,26.27
2023-09-12T23:56:07.704Z,26.90
2023-09-12T23:58:50.373Z,25.20
